createdAt,value
2023-03-19T00:02:25.000Z,7.63
2023-03-19T00:07:25.000Z,7.27
2023-03-19T00:12:25.000Z,8.05
2023-03-19T00:17:26.000Z,8.56
2023-03-19T00:22:26.000Z,7.71
2023-03-19T00:27:26.000Z,7.92
2023-03-19T00:32:26.000Z,8.49
2023-03-19T00:37:25.000Z,8.72
2023-03-19T00:42:26.000Z,7.91
2023-03-19T00:47:25.000Z,7.55
2023-03-19T00:52:25.000Z,7.85
2023-03-19T00:57:25.000Z,7.61
2023-03-19T01:02:25.000Z,7.71
2023-03-19T01:07:25.000Z,7.45
2023-03-19T01:12:25.000Z,9.03
2023-03-19T01:17:25.000Z,10.55
2023-03-19T01:22:25.000Z,9.09
2023-03-19T01:27:26.000Z,7.51
2023-03-19T01:32:25.000Z,7.23
2023-03-19T01:37:25.000Z,7.55
2023-03-19T01:42:25.000Z,8.02
2023-03-19T01:47:25.000Z,7.34
2023-03-19T01:52:25.000Z,7.24
2023-03-19T01:57:25.000Z,6.92
2023-03-19T02:02:25.000Z,6.89
2023-03-19T02:07:25.000Z,7.02
2023-03-19T02:12:25.000Z,6.92
2023-03-19T02:17:25.000Z,8.8
2023-03-19T02:22:26.000Z,7.58
2023-03-19T02:27:26.000Z,7.31
2023-03-19T02:32:26.000Z,7.06
2023-03-19T02:37:25.000Z,7.24
2023-03-19T02:42:25.000Z,6.88
2023-03-19T02:47:25.000Z,7.47
2023-03-19T02:52:25.000Z,7.25
2023-03-19T02:57:24.000Z,7.19
2023-03-19T03:02:25.000Z,7.55
2023-03-19T03:07:25.000Z,7.64
2023-03-19T03:12:25.000Z,6.93
2023-03-19T03:17:25.000Z,7.05
2023-03-19T03:22:25.000Z,7.18
2023-03-19T03:27:25.000Z,7.39
2023-03-19T03:32:26.000Z,7.8
2023-03-19T03:37:25.000Z,8.98
2023-03-19T03:42:26.000Z,9.37
2023-03-19T03:47:25.000Z,10.12
2023-03-19T03:52:25.000Z,9.36
2023-03-19T03:57:26.000Z,8.87
2023-03-19T04:02:25.000Z,8.21
2023-03-19T04:07:25.000Z,8.71
2023-03-19T04:12:25.000Z,7.67
2023-03-19T04:17:25.000Z,7.94
2023-03-19T04:22:25.000Z,8.86
2023-03-19T04:27:25.000Z,8.8
2023-03-19T04:32:25.000Z,9.56
2023-03-19T04:37:25.000Z,9.22
2023-03-19T04:42:25.000Z,8.57
2023-03-19T04:47:25.000Z,8.14
2023-03-19T04:52:25.000Z,8.72
2023-03-19T04:57:25.000Z,9.07
2023-03-19T05:02:25.000Z,8.53
2023-03-19T05:07:26.000Z,8.69
2023-03-19T05:12:25.000Z,7.35
2023-03-19T05:17:24.000Z,7.46
2023-03-19T05:22:25.000Z,6.87
2023-03-19T05:27:25.000Z,5.87
2023-03-19T05:32:25.000Z,5.24
2023-03-19T05:37:25.000Z,4.96
2023-03-19T05:42:26.000Z,5
2023-03-19T05:47:24.000Z,4.79
2023-03-19T05:52:25.000Z,4.81
2023-03-19T05:57:26.000Z,4.47
2023-03-19T06:02:26.000Z,4.44
2023-03-19T06:07:25.000Z,4.64
2023-03-19T06:12:25.000Z,4.66
2023-03-19T06:17:25.000Z,4.64
2023-03-19T06:22:26.000Z,4.36
2023-03-19T06:27:25.000Z,4.33
2023-03-19T06:32:25.000Z,4.48
2023-03-19T06:37:25.000Z,4.47
2023-03-19T06:42:25.000Z,4.75
2023-03-19T06:47:25.000Z,4.67
2023-03-19T06:52:26.000Z,4.62
2023-03-19T06:57:26.000Z,4.73
2023-03-19T07:02:25.000Z,4.7
2023-03-19T07:07:25.000Z,4.66
2023-03-19T07:12:25.000Z,4.63
2023-03-19T07:17:25.000Z,4.36
2023-03-19T07:22:26.000Z,4.3
2023-03-19T07:27:25.000Z,5.73
2023-03-19T07:32:26.000Z,4.49
2023-03-19T07:37:25.000Z,4.14
2023-03-19T07:42:25.000Z,4.66
2023-03-19T07:47:25.000Z,4.74
2023-03-19T07:52:25.000Z,4.66
2023-03-19T07:57:25.000Z,4.83
2023-03-19T08:02:25.000Z,5.08
2023-03-19T08:07:25.000Z,5.07
2023-03-19T08:12:25.000Z,5.15
2023-03-19T08:17:25.000Z,5.1
2023-03-19T08:22:26.000Z,5.88
2023-03-19T08:27:25.000Z,6.65
2023-03-19T08:32:25.000Z,6.16
2023-03-19T08:37:25.000Z,6.44
2023-03-19T08:42:25.000Z,6.18
2023-03-19T08:47:25.000Z,5.92
2023-03-19T08:52:25.000Z,5.93
2023-03-19T08:57:25.000Z,5.75
2023-03-19T09:02:25.000Z,6.28
2023-03-19T09:07:25.000Z,6.72
2023-03-19T09:12:25.000Z,6.17
2023-03-19T09:17:25.000Z,6.11
2023-03-19T09:22:25.000Z,6.13
2023-03-19T09:27:25.000Z,6.22
2023-03-19T09:32:25.000Z,6.03
2023-03-19T09:37:25.000Z,5.95
2023-03-19T09:42:26.000Z,6.18
2023-03-19T09:47:25.000Z,6.29
2023-03-19T09:52:25.000Z,6.03
2023-03-19T09:57:25.000Z,5.55
2023-03-19T10:02:25.000Z,5.7
2023-03-19T10:07:25.000Z,5.88
2023-03-19T10:12:25.000Z,5.9
2023-03-19T10:17:25.000Z,5.84
2023-03-19T10:22:25.000Z,5.74
2023-03-19T10:27:25.000Z,5.7
2023-03-19T10:32:25.000Z,5.58
2023-03-19T10:37:25.000Z,5.56
2023-03-19T10:42:26.000Z,5.98
2023-03-19T10:47:25.000Z,5.39
2023-03-19T10:52:26.000Z,5.39
2023-03-19T10:57:25.000Z,5.58
2023-03-19T11:02:25.000Z,5.5
2023-03-19T11:07:25.000Z,5.95
2023-03-19T11:12:25.000Z,5.38
2023-03-19T11:17:25.000Z,4.61
2023-03-19T11:22:26.000Z,3.4
2023-03-19T11:27:25.000Z,4.27
2023-03-19T11:32:25.000Z,3.81
2023-03-19T11:37:25.000Z,4.14
2023-03-19T11:42:25.000Z,4.04
2023-03-19T11:47:26.000Z,4.17
2023-03-19T11:52:26.000Z,3.68
2023-03-19T11:57:25.000Z,3.93
2023-03-19T12:02:25.000Z,4.15
2023-03-19T12:07:25.000Z,4.28
2023-03-19T12:12:25.000Z,4.47
2023-03-19T12:17:25.000Z,4.63
2023-03-19T12:22:26.000Z,4.23
2023-03-19T12:27:25.000Z,3.46
2023-03-19T12:32:26.000Z,3.39
2023-03-19T12:37:25.000Z,3.32
2023-03-19T12:42:26.000Z,2.83
2023-03-19T12:47:26.000Z,3.11
2023-03-19T12:52:25.000Z,3.47
2023-03-19T12:57:24.000Z,3.84
2023-03-19T13:02:26.000Z,3.55
2023-03-19T13:07:25.000Z,3.64
2023-03-19T13:12:25.000Z,3.69
2023-03-19T13:17:25.000Z,3.66
2023-03-19T13:22:25.000Z,3.66
2023-03-19T13:27:25.000Z,3.51
2023-03-19T13:32:25.000Z,3.76
2023-03-19T13:37:26.000Z,4.03
2023-03-19T13:42:25.000Z,3.93
2023-03-19T13:47:26.000Z,3.85
2023-03-19T13:52:25.000Z,3.57
2023-03-19T13:57:26.000Z,3.49
2023-03-19T14:02:26.000Z,3.49
2023-03-19T14:07:26.000Z,3.94
2023-03-19T14:12:25.000Z,4.3
2023-03-19T14:17:25.000Z,4.18
2023-03-19T14:22:25.000Z,4.39
2023-03-19T14:27:26.000Z,4.62
2023-03-19T14:32:25.000Z,5.14
2023-03-19T14:37:26.000Z,4.89
2023-03-19T14:42:26.000Z,4.8
2023-03-19T14:47:26.000Z,4.76
2023-03-19T14:52:26.000Z,5.05
2023-03-19T14:57:24.000Z,5.05
2023-03-19T15:02:25.000Z,5.08
2023-03-19T15:07:26.000Z,5.11
2023-03-19T15:12:25.000Z,5.22
2023-03-19T15:17:25.000Z,5.33
2023-03-19T15:22:25.000Z,9.25
2023-03-19T15:27:25.000Z,14.6
2023-03-19T15:32:26.000Z,13.16
2023-03-19T15:37:25.000Z,9.34
2023-03-19T15:42:25.000Z,7.86
2023-03-19T15:47:25.000Z,10.86
2023-03-19T15:52:25.000Z,11.38
2023-03-19T15:57:25.000Z,8.72
2023-03-19T16:02:25.000Z,8.69
2023-03-19T16:07:25.000Z,8.85
2023-03-19T16:12:25.000Z,6.49
2023-03-19T16:17:25.000Z,6.29
2023-03-19T16:22:25.000Z,6.34
2023-03-19T16:27:25.000Z,6.27
2023-03-19T16:32:26.000Z,7.15
2023-03-19T16:37:26.000Z,7.96
2023-03-19T16:42:25.000Z,9.32
2023-03-19T16:47:25.000Z,8.42
2023-03-19T16:52:24.000Z,8.47
2023-03-19T16:57:25.000Z,8.82
2023-03-19T17:02:25.000Z,9.2
2023-03-19T17:07:25.000Z,9.07
2023-03-19T17:12:25.000Z,9.11
2023-03-19T17:17:25.000Z,8.88
2023-03-19T17:22:25.000Z,9.7
2023-03-19T17:27:25.000Z,8.95
2023-03-19T17:32:26.000Z,7.95
2023-03-19T17:37:26.000Z,8.15
2023-03-19T17:42:25.000Z,9.22
2023-03-19T17:47:25.000Z,8.66
2023-03-19T17:52:25.000Z,8.85
2023-03-19T17:57:25.000Z,8.48
2023-03-19T18:02:26.000Z,7.71
2023-03-19T18:07:25.000Z,7.75
2023-03-19T18:12:25.000Z,8.03
2023-03-19T18:17:26.000Z,8.51
2023-03-19T18:22:25.000Z,8.5
2023-03-19T18:27:25.000Z,8.65
2023-03-19T18:32:25.000Z,8.6
2023-03-19T18:37:26.000Z,8.75
2023-03-19T18:42:25.000Z,9.11
2023-03-19T18:47:25.000Z,9
2023-03-19T18:52:25.000Z,9.11
2023-03-19T18:57:24.000Z,9.38
2023-03-19T19:02:25.000Z,9.82
2023-03-19T19:07:25.000Z,10.4
2023-03-19T19:12:25.000Z,10.25
2023-03-19T19:17:25.000Z,10.36
2023-03-19T19:22:25.000Z,9.88
2023-03-19T19:27:25.000Z,9.95
2023-03-19T19:32:25.000Z,9.75
2023-03-19T19:37:25.000Z,10.96
2023-03-19T19:42:25.000Z,9.61
2023-03-19T19:47:25.000Z,8.8
2023-03-19T19:52:25.000Z,8.85
2023-03-19T19:57:25.000Z,8.61
2023-03-19T20:02:25.000Z,8.71
2023-03-19T20:07:26.000Z,8.8
2023-03-19T20:12:26.000Z,9.48
2023-03-19T20:17:25.000Z,8.83
2023-03-19T20:22:26.000Z,8.58
2023-03-19T20:27:25.000Z,9.2
2023-03-19T20:32:25.000Z,8.93
2023-03-19T20:37:25.000Z,9.95
2023-03-19T20:42:25.000Z,9.09
2023-03-19T20:47:25.000Z,9.39
2023-03-19T20:52:25.000Z,9.57
2023-03-19T20:57:26.000Z,9.78
2023-03-19T21:02:25.000Z,10.61
2023-03-19T21:07:25.000Z,9.24
2023-03-19T21:12:25.000Z,9.19
2023-03-19T21:17:25.000Z,9.06
2023-03-19T21:22:25.000Z,9.65
2023-03-19T21:27:25.000Z,9.28
2023-03-19T21:32:26.000Z,9.42
2023-03-19T21:37:25.000Z,9.72
2023-03-19T21:42:25.000Z,10.45
2023-03-19T21:47:26.000Z,10.04
2023-03-19T21:52:25.000Z,10.92
2023-03-19T21:57:25.000Z,10.77
2023-03-19T22:02:25.000Z,10.65
2023-03-19T22:07:26.000Z,11.04
2023-03-19T22:12:25.000Z,11.92
2023-03-19T22:17:25.000Z,11.97
2023-03-19T22:22:25.000Z,12.65
2023-03-19T22:27:25.000Z,12.82
2023-03-19T22:32:25.000Z,12.81
2023-03-19T22:37:25.000Z,12.78
2023-03-19T22:42:25.000Z,12.57
2023-03-19T22:47:25.000Z,12.14
2023-03-19T22:52:25.000Z,11.11
2023-03-19T22:57:25.000Z,11.47
2023-03-19T23:02:25.000Z,11.75
2023-03-19T23:07:25.000Z,12.06
2023-03-19T23:12:25.000Z,11.94
2023-03-19T23:17:26.000Z,12.18
2023-03-19T23:22:25.000Z,12.53
2023-03-19T23:27:25.000Z,12.17
2023-03-19T23:32:25.000Z,12.26
2023-03-19T23:37:25.000Z,12.69
2023-03-19T23:42:24.000Z,12.48
2023-03-19T23:47:25.000Z,12.29
2023-03-19T23:52:26.000Z,12.28
2023-03-19T23:57:25.000Z,12.27
